createdAt,value
2019-01-04T00:08:01.906Z,44.70
2019-01-04T00:48:26.817Z,45.80
2019-01-04T01:01:49.612Z,46.00
2019-01-04T01:15:12.420Z,46.10
2019-01-04T01:28:35.180Z,46.30
2019-01-04T01:41:58.016Z,46.40
2019-01-04T01:55:20.821Z,46.80
2019-01-04T02:08:43.667Z,46.60
2019-01-04T02:22:06.473Z,46.70
2019-01-04T02:35:29.295Z,46.90
2019-01-04T02:48:52.087Z,46.90
2019-01-04T03:02:14.903Z,47.00
2019-01-04T03:15:37.718Z,46.70
2019-01-04T03:29:00.562Z,47.10
2019-01-04T03:42:23.384Z,47.30
2019-01-04T03:55:46.207Z,47.20
2019-01-04T04:09:09.032Z,47.20
2019-01-04T04:22:31.774Z,47.20
2019-01-04T04:35:54.599Z,46.90
2019-01-04T04:49:17.444Z,46.90
2019-01-04T05:02:40.293Z,46.90
2019-01-04T05:16:03.064Z,46.90
2019-01-04T05:29:25.866Z,47.00
2019-01-04T05:42:48.689Z,46.90
2019-01-04T05:56:11.536Z,47.00
2019-01-04T06:09:34.369Z,47.10
2019-01-04T06:35:58.821Z,47.20
2019-01-04T06:49:06.039Z,47.40
2019-01-04T07:02:13.267Z,47.40
2019-01-04T07:15:20.496Z,47.50
2019-01-04T07:28:27.761Z,46.50
2019-01-04T07:41:34.973Z,44.90
2019-01-04T07:54:58.572Z,44.20
2019-01-04T08:08:21.443Z,44.20
2019-01-04T08:34:45.802Z,42.90
2019-01-04T08:47:52.951Z,44.30
2019-01-04T09:01:00.140Z,44.60
2019-01-04T09:14:07.412Z,45.30
2019-01-04T09:27:14.614Z,45.80
2019-01-04T09:40:21.802Z,45.30
2019-01-04T09:53:45.653Z,45.70
2019-01-04T10:07:08.390Z,46.00
2019-01-04T10:20:31.240Z,47.40
2019-01-04T10:33:54.069Z,46.30
2019-01-04T10:47:16.881Z,46.50
2019-01-04T11:00:39.733Z,47.20
2019-01-04T11:14:02.552Z,47.60
2019-01-04T11:27:25.330Z,47.50
2019-01-04T11:40:48.117Z,48.20
2019-01-04T11:54:10.942Z,48.30
2019-01-04T12:07:33.760Z,48.50
2019-01-04T12:20:56.573Z,48.40
2019-01-04T12:34:19.416Z,48.80
2019-01-04T12:47:42.225Z,49.30
2019-01-04T13:01:05.031Z,48.80
2019-01-04T13:14:27.865Z,48.70
2019-01-04T13:27:50.703Z,48.60
2019-01-04T13:41:13.499Z,48.50
2019-01-04T13:54:36.307Z,48.60
2019-01-04T14:21:34.028Z,48.60
2019-01-04T14:34:41.195Z,48.50
2019-01-04T14:47:48.352Z,48.40
2019-01-04T15:00:55.508Z,48.30
2019-01-04T15:14:02.680Z,48.20
2019-01-04T15:27:09.851Z,48.20
2019-01-04T15:40:33.265Z,48.30
2019-01-04T15:53:56.099Z,47.30
2019-01-04T16:07:18.897Z,47.30
2019-01-04T16:20:41.707Z,47.70
2019-01-04T16:34:04.586Z,48.20
2019-01-04T16:47:27.370Z,48.50
2019-01-04T17:00:50.203Z,48.70
2019-01-04T17:14:12.989Z,49.60
2019-01-04T17:27:35.817Z,49.00
2019-01-04T17:40:58.631Z,49.40
2019-01-04T17:54:21.532Z,46.50
2019-01-04T18:07:44.220Z,44.60
2019-01-04T18:21:07.124Z,43.50
2019-01-04T18:34:30.036Z,43.40
2019-01-04T18:47:52.656Z,44.30
2019-01-04T19:01:15.596Z,45.00
2019-01-04T19:14:38.407Z,45.40
2019-01-04T19:28:01.294Z,45.60
2019-01-04T19:41:23.922Z,45.90
2019-01-04T20:20:54.902Z,46.40
2019-01-04T20:34:02.032Z,46.40
2019-01-04T20:47:09.155Z,46.60
2019-01-04T21:00:16.292Z,46.60
2019-01-04T21:13:23.444Z,46.80
2019-01-04T21:26:30.598Z,46.90
2019-01-04T21:39:54.790Z,47.00
2019-01-04T21:53:17.447Z,47.00
2019-01-04T22:06:40.230Z,47.20
2019-01-04T22:20:03.176Z,47.20
2019-01-04T22:33:25.866Z,47.20
2019-01-04T22:46:48.694Z,47.40
2019-01-04T23:00:11.563Z,47.40
2019-01-04T23:13:34.369Z,47.60
2019-01-04T23:26:57.138Z,47.60
2019-01-04T23:40:19.936Z,47.80
2019-01-04T23:53:42.753Z,47.90
